createdAt,value
2018-04-12T00:00:34.237Z,9.20
2018-04-12T00:03:01.911Z,9.20
2018-04-12T00:05:29.539Z,9.20
2018-04-12T00:07:57.147Z,9.10
2018-04-12T00:10:25.524Z,8.90
2018-04-12T00:12:54.658Z,8.80
2018-04-12T00:15:22.285Z,8.80
2018-04-12T00:17:51.468Z,8.70
2018-04-12T00:20:20.304Z,8.70
2018-04-12T00:22:49.609Z,8.70
2018-04-12T00:25:18.272Z,8.70
2018-04-12T00:27:47.236Z,8.80
2018-04-12T00:30:16.041Z,8.70
2018-04-12T00:32:50.351Z,8.70
2018-04-12T00:35:23.069Z,8.70
2018-04-12T00:37:56.446Z,8.70
2018-04-12T00:40:28.297Z,8.70
2018-04-12T00:42:57.584Z,8.90
2018-04-12T00:45:25.977Z,8.90
2018-04-12T00:47:55.245Z,8.90
2018-04-12T00:50:23.059Z,8.90
2018-04-12T00:52:51.526Z,8.80
2018-04-12T00:55:20.521Z,8.80
2018-04-12T00:57:49.946Z,8.70
2018-04-12T01:00:19.924Z,8.80
2018-04-12T01:02:49.108Z,8.60
2018-04-12T01:05:17.951Z,8.60
2018-04-12T01:07:45.625Z,8.60
2018-04-12T01:10:14.230Z,8.50
2018-04-12T01:12:41.803Z,8.50
2018-04-12T01:15:10.189Z,8.40
2018-04-12T01:17:39.200Z,8.40
2018-04-12T01:20:07.992Z,8.40
2018-04-12T01:22:35.625Z,8.40
2018-04-12T01:25:04.013Z,8.40
2018-04-12T01:27:32.404Z,8.50
2018-04-12T01:30:04.423Z,8.50
2018-04-12T01:32:34.830Z,8.40
2018-04-12T01:35:02.494Z,8.50
2018-04-12T01:37:30.064Z,8.50
2018-04-12T01:39:57.670Z,8.60
2018-04-12T01:42:25.262Z,8.60
2018-04-12T01:44:53.555Z,8.50
2018-04-12T01:47:21.698Z,8.40
2018-04-12T01:49:51.450Z,8.40
2018-04-12T01:52:19.065Z,8.40
2018-04-12T01:54:46.709Z,8.40
2018-04-12T01:57:15.069Z,8.20
2018-04-12T01:59:42.722Z,8.20
2018-04-12T02:02:10.349Z,8.10
2018-04-12T02:04:40.933Z,8.00
2018-04-12T02:07:10.801Z,8.00
2018-04-12T02:09:38.380Z,7.90
2018-04-12T02:12:06.840Z,8.00
2018-04-12T02:14:36.107Z,7.90
2018-04-12T02:17:03.741Z,7.80
2018-04-12T02:19:32.632Z,7.70
2018-04-12T02:22:03.146Z,7.70
2018-04-12T02:24:32.593Z,7.80
2018-04-12T02:27:01.544Z,7.80
2018-04-12T02:29:29.699Z,7.80
2018-04-12T02:31:57.301Z,7.80
2018-04-12T02:34:25.697Z,7.90
2018-04-12T02:36:53.338Z,7.90
2018-04-12T02:39:28.008Z,7.80
2018-04-12T02:41:55.648Z,7.80
2018-04-12T02:44:23.216Z,7.80
2018-04-12T02:46:50.856Z,7.80
2018-04-12T02:49:19.233Z,7.90
2018-04-12T02:51:48.608Z,7.90
2018-04-12T02:54:16.230Z,7.80
2018-04-12T02:56:44.147Z,7.80
2018-04-12T02:59:11.746Z,7.70
2018-04-12T03:01:39.327Z,7.70
2018-04-12T03:04:06.914Z,7.70
2018-04-12T03:06:34.525Z,7.70
2018-04-12T03:09:04.185Z,7.60
2018-04-12T03:11:32.073Z,7.50
2018-04-12T03:14:00.448Z,7.50
2018-04-12T03:16:28.785Z,7.50
2018-04-12T03:18:56.427Z,7.50
2018-04-12T03:21:24.057Z,7.50
2018-04-12T03:23:51.736Z,7.60
2018-04-12T03:26:19.293Z,7.60
2018-04-12T03:28:46.876Z,7.60
2018-04-12T03:31:14.500Z,7.60
2018-04-12T03:33:42.166Z,7.70
2018-04-12T03:36:09.801Z,7.70
2018-04-12T03:38:38.595Z,7.80
2018-04-12T03:41:06.195Z,7.90
2018-04-12T03:43:33.831Z,8.00
2018-04-12T03:46:03.289Z,7.90
2018-04-12T03:48:32.775Z,7.90
2018-04-12T03:51:02.011Z,7.80
2018-04-12T03:53:29.614Z,7.80
2018-04-12T03:55:57.261Z,7.80
2018-04-12T03:58:25.630Z,8.00
2018-04-12T04:00:54.066Z,8.00
2018-04-12T04:03:22.295Z,8.00
2018-04-12T04:05:51.484Z,8.00
2018-04-12T04:08:19.885Z,8.10
2018-04-12T04:10:49.223Z,8.10
2018-04-12T04:13:17.570Z,8.10
2018-04-12T04:16:00.362Z,8.10
2018-04-12T04:18:44.708Z,8.30
2018-04-12T04:21:17.992Z,8.40
2018-04-12T04:23:46.812Z,8.40
2018-04-12T04:29:15.393Z,8.40
2018-04-12T04:31:45.171Z,8.40
2018-04-12T04:34:19.025Z,8.30
2018-04-12T04:36:48.945Z,8.40
2018-04-12T04:39:22.689Z,8.30
2018-04-12T04:41:51.092Z,8.30
2018-04-12T04:44:18.724Z,8.20
2018-04-12T04:46:52.784Z,8.20
2018-04-12T04:49:27.243Z,8.00
2018-04-12T04:51:56.336Z,8.00
2018-04-12T04:54:27.766Z,7.90
2018-04-12T04:56:55.980Z,8.00
2018-04-12T04:59:25.004Z,8.00
2018-04-12T05:01:57.442Z,8.10
2018-04-12T05:04:25.004Z,8.10
2018-04-12T05:06:58.788Z,8.10
2018-04-12T05:09:31.517Z,8.20
2018-04-12T05:12:02.725Z,8.40
2018-04-12T05:14:32.440Z,8.50
2018-04-12T05:17:07.021Z,8.60
2018-04-12T05:19:37.236Z,9.30
2018-04-12T05:22:13.753Z,9.90
2018-04-12T05:24:44.132Z,9.90
2018-04-12T05:27:19.194Z,10.70
2018-04-12T05:29:48.424Z,10.70
2018-04-12T05:32:20.281Z,11.20
2018-04-12T05:34:49.671Z,11.60
2018-04-12T05:37:20.136Z,12.20
2018-04-12T05:39:53.157Z,12.30
2018-04-12T05:42:24.863Z,12.20
2018-04-12T05:44:54.047Z,12.30
2018-04-12T05:47:22.525Z,12.30
2018-04-12T05:49:52.196Z,12.20
2018-04-12T05:52:21.294Z,11.20
2018-04-12T05:54:52.501Z,11.20
2018-04-12T05:57:25.399Z,11.20
2018-04-12T05:59:56.830Z,10.90
2018-04-12T06:02:26.231Z,10.80
2018-04-12T06:04:59.960Z,10.80
2018-04-12T06:07:29.037Z,10.80
2018-04-12T06:09:57.547Z,10.70
2018-04-12T06:12:28.754Z,10.60
2018-04-12T06:15:06.391Z,10.60
2018-04-12T06:17:35.511Z,10.60
2018-04-12T06:20:06.820Z,10.60
2018-04-12T06:22:41.385Z,10.70
2018-04-12T06:25:12.581Z,10.70
2018-04-12T06:28:02.022Z,11.00
2018-04-12T06:30:32.890Z,11.30
2018-04-12T06:33:04.091Z,11.60
2018-04-12T06:35:33.429Z,11.80
2018-04-12T06:38:11.904Z,11.90
2018-04-12T06:40:53.934Z,11.80
2018-04-12T06:43:26.077Z,11.80
2018-04-12T06:45:56.005Z,12.00
2018-04-12T06:48:25.151Z,12.00
2018-04-12T06:50:53.342Z,12.20
2018-04-12T06:53:27.532Z,12.60
2018-04-12T06:55:59.161Z,12.80
2018-04-12T06:58:43.201Z,12.80
2018-04-12T07:01:14.016Z,13.20
2018-04-12T07:03:41.675Z,13.30
2018-04-12T07:06:11.083Z,13.50
2018-04-12T07:08:39.470Z,13.50
2018-04-12T07:11:07.366Z,13.40
2018-04-12T07:13:36.327Z,13.10
2018-04-12T07:16:03.947Z,13.10
2018-04-12T07:18:31.583Z,13.00
2018-04-12T07:24:03.898Z,14.80
2018-04-12T07:26:31.577Z,14.80
2018-04-12T07:28:59.185Z,16.00
2018-04-12T07:31:27.658Z,17.40
2018-04-12T07:33:56.205Z,18.20
2018-04-12T07:36:23.790Z,19.10
2018-04-12T07:38:51.380Z,19.70
2018-04-12T07:41:21.804Z,20.80
2018-04-12T07:43:49.515Z,22.20
2018-04-12T07:46:18.517Z,23.10
2018-04-12T07:48:46.459Z,23.10
2018-04-12T07:51:15.680Z,23.70
2018-04-12T07:53:44.315Z,23.80
2018-04-12T07:56:12.757Z,21.30
2018-04-12T07:58:43.381Z,21.20
2018-04-12T08:01:10.982Z,20.10
2018-04-12T08:03:38.632Z,19.20
2018-04-12T08:06:06.906Z,18.50
2018-04-12T08:08:39.113Z,17.20
2018-04-12T08:11:07.323Z,16.60
2018-04-12T08:13:34.907Z,16.60
2018-04-12T08:16:02.547Z,16.30
2018-04-12T08:18:30.194Z,15.60
2018-04-12T08:20:57.849Z,15.90
2018-04-12T08:23:25.446Z,16.30
2018-04-12T08:25:53.041Z,16.80
2018-04-12T08:28:21.379Z,17.60
2018-04-12T08:30:48.965Z,17.50
2018-04-12T08:33:16.622Z,18.00
2018-04-12T08:36:03.429Z,17.60
2018-04-12T08:38:31.065Z,17.30
2018-04-12T08:40:58.683Z,16.60
2018-04-12T08:43:27.061Z,16.30
2018-04-12T08:45:54.661Z,16.30
2018-04-12T08:48:22.269Z,16.50
2018-04-12T08:50:50.637Z,16.20
2018-04-12T08:53:19.011Z,16.40
2018-04-12T08:55:46.576Z,16.30
2018-04-12T08:58:14.938Z,17.00
2018-04-12T09:00:42.566Z,17.00
2018-04-12T09:03:10.195Z,17.20
2018-04-12T09:05:37.763Z,17.60
2018-04-12T09:08:05.325Z,17.90
2018-04-12T09:10:32.881Z,18.70
2018-04-12T09:13:00.482Z,19.10
2018-04-12T09:15:28.088Z,18.70
2018-04-12T09:17:55.739Z,18.00
2018-04-12T09:20:24.143Z,16.60
2018-04-12T09:22:51.769Z,16.60
2018-04-12T09:25:19.395Z,16.40
2018-04-12T09:27:46.993Z,16.20
2018-04-12T09:30:15.547Z,16.40
2018-04-12T09:32:43.180Z,17.00
2018-04-12T09:35:10.731Z,17.70
2018-04-12T09:37:38.334Z,17.90
2018-04-12T09:40:05.946Z,18.80
2018-04-12T09:42:33.566Z,21.00
2018-04-12T09:45:01.181Z,23.40
2018-04-12T09:47:28.815Z,23.90
2018-04-12T09:49:57.193Z,24.30
2018-04-12T09:52:25.574Z,23.00
2018-04-12T09:54:53.931Z,23.00
2018-04-12T09:57:22.315Z,23.70
2018-04-12T09:59:50.698Z,24.80
2018-04-12T10:02:33.147Z,24.70
2018-04-12T10:05:00.780Z,24.70
2018-04-12T10:07:34.203Z,25.40
2018-04-12T10:10:01.816Z,24.50
2018-04-12T10:12:29.417Z,26.00
2018-04-12T10:14:57.006Z,26.70
2018-04-12T10:17:24.696Z,26.00
2018-04-12T10:19:52.222Z,27.10
2018-04-12T10:22:19.834Z,28.10
2018-04-12T10:24:48.221Z,26.70
2018-04-12T10:27:18.413Z,25.30
2018-04-12T10:29:49.733Z,24.90
2018-04-12T10:32:17.365Z,25.00
2018-04-12T10:34:45.732Z,25.60
2018-04-12T10:37:17.365Z,25.60
2018-04-12T10:39:45.752Z,25.70
2018-04-12T10:42:14.104Z,25.40
2018-04-12T10:44:42.553Z,25.40
2018-04-12T10:47:10.758Z,26.30
2018-04-12T10:49:42.081Z,26.30
2018-04-12T10:52:10.283Z,27.70
2018-04-12T10:54:39.202Z,28.00
2018-04-12T10:59:40.798Z,27.30
2018-04-12T11:02:11.345Z,27.30
2018-04-12T11:04:39.014Z,26.60
2018-04-12T11:07:07.312Z,26.60
2018-04-12T11:09:36.098Z,26.50
2018-04-12T11:12:03.710Z,26.00
2018-04-12T11:14:31.326Z,26.30
2018-04-12T11:17:00.402Z,25.90
2018-04-12T11:19:28.059Z,27.10
2018-04-12T11:22:08.771Z,27.40
2018-04-12T11:24:44.027Z,25.70
2018-04-12T11:29:51.142Z,25.30
2018-04-12T11:32:20.931Z,26.90
2018-04-12T11:34:50.476Z,27.10
2018-04-12T11:37:25.870Z,26.30
2018-04-12T11:40:01.600Z,26.50
2018-04-12T11:42:30.981Z,26.50
2018-04-12T11:45:01.280Z,24.20
2018-04-12T11:47:32.826Z,23.30
2018-04-12T11:50:08.357Z,23.30
2018-04-12T11:52:37.043Z,23.60
2018-04-12T11:55:15.520Z,23.30
2018-04-12T11:57:48.497Z,22.50
2018-04-12T12:00:24.036Z,22.70
2018-04-12T12:02:55.621Z,22.60
2018-04-12T12:05:28.951Z,22.70
2018-04-12T12:07:59.468Z,22.70
2018-04-12T12:10:28.565Z,22.70
2018-04-12T12:13:01.563Z,23.10
2018-04-12T12:15:32.590Z,22.40
2018-04-12T12:18:00.844Z,22.50
2018-04-12T12:20:28.442Z,22.30
2018-04-12T12:22:56.119Z,22.60
2018-04-12T12:25:25.634Z,22.40
2018-04-12T12:27:53.792Z,21.60
2018-04-12T12:30:23.200Z,21.80
2018-04-12T12:32:50.834Z,22.20
2018-04-12T12:35:18.418Z,22.60
2018-04-12T12:37:50.437Z,22.70
2018-04-12T12:40:18.077Z,22.70
2018-04-12T12:42:45.701Z,22.80
2018-04-12T12:45:14.443Z,22.40
2018-04-12T12:47:42.067Z,22.20
2018-04-12T12:50:10.789Z,22.00
2018-04-12T12:52:38.348Z,21.80
2018-04-12T12:55:05.945Z,21.90
2018-04-12T12:57:34.535Z,21.70
2018-04-12T13:00:03.135Z,21.70
2018-04-12T13:02:31.183Z,21.50
2018-04-12T13:04:59.412Z,21.40
2018-04-12T13:07:27.837Z,21.40
2018-04-12T13:09:55.501Z,21.50
2018-04-12T13:12:23.119Z,21.40
2018-04-12T13:14:51.010Z,21.20
2018-04-12T13:17:20.211Z,21.00
2018-04-12T13:19:47.798Z,21.00
2018-04-12T13:22:16.169Z,21.00
2018-04-12T13:24:47.525Z,21.60
2018-04-12T13:27:15.149Z,22.40
2018-04-12T13:29:44.738Z,23.20
2018-04-12T13:32:13.749Z,23.20
2018-04-12T13:34:42.119Z,24.10
2018-04-12T13:37:09.709Z,24.00
2018-04-12T13:39:38.125Z,23.70
2018-04-12T13:42:05.704Z,22.90
2018-04-12T13:44:33.385Z,22.00
2018-04-12T13:47:01.701Z,21.60
2018-04-12T13:49:29.327Z,21.60
2018-04-12T13:51:57.709Z,21.30
2018-04-12T13:54:26.089Z,21.60
2018-04-12T13:56:57.337Z,22.40
2018-04-12T13:59:25.127Z,22.40
2018-04-12T14:01:53.425Z,22.50
2018-04-12T14:04:22.044Z,22.20
2018-04-12T14:06:52.328Z,21.80
2018-04-12T14:09:23.482Z,21.20
2018-04-12T14:14:47.813Z,21.40
2018-04-12T14:17:15.593Z,21.40
2018-04-12T14:19:44.180Z,21.70
2018-04-12T14:22:11.799Z,21.90
2018-04-12T14:24:39.749Z,22.20
2018-04-12T14:27:07.420Z,23.00
2018-04-12T14:29:35.048Z,23.60
2018-04-12T14:32:08.644Z,23.50
2018-04-12T14:34:36.247Z,23.40
2018-04-12T14:37:03.868Z,23.30
2018-04-12T14:39:31.518Z,23.20
2018-04-12T14:41:59.081Z,23.10
2018-04-12T14:44:26.745Z,22.50
2018-04-12T14:46:54.364Z,22.30
2018-04-12T14:49:21.954Z,22.40
2018-04-12T14:51:49.589Z,22.40
2018-04-12T14:54:19.407Z,22.40
2018-04-12T14:56:46.846Z,22.10
2018-04-12T14:59:14.402Z,22.70
2018-04-12T15:01:41.945Z,23.10
2018-04-12T15:04:09.488Z,23.10
2018-04-12T15:06:37.053Z,23.10
2018-04-12T15:09:04.646Z,22.70
2018-04-12T15:11:32.249Z,22.20
2018-04-12T15:13:59.809Z,22.30
2018-04-12T15:16:27.423Z,22.80
2018-04-12T15:18:54.970Z,23.00
2018-04-12T15:21:22.543Z,22.80
2018-04-12T15:23:50.177Z,22.40
2018-04-12T15:26:17.775Z,22.10
2018-04-12T15:28:45.369Z,22.40
2018-04-12T15:31:12.994Z,22.20
2018-04-12T15:33:40.573Z,21.90
2018-04-12T15:36:08.936Z,21.90
2018-04-12T15:38:37.284Z,21.60
2018-04-12T15:41:04.941Z,21.60
2018-04-12T15:43:32.569Z,21.30
2018-04-12T15:46:00.139Z,21.10
2018-04-12T15:48:27.730Z,20.70
2018-04-12T15:50:55.276Z,20.60
2018-04-12T15:53:22.838Z,20.50
2018-04-12T15:55:50.407Z,20.20
2018-04-12T15:58:17.984Z,20.00
2018-04-12T16:00:45.563Z,19.70
2018-04-12T16:03:13.905Z,19.70
2018-04-12T16:05:41.523Z,19.60
2018-04-12T16:08:12.217Z,19.50
2018-04-12T16:10:39.840Z,19.50
2018-04-12T16:13:07.412Z,19.60
2018-04-12T16:15:34.993Z,19.90
2018-04-12T16:18:02.558Z,20.60
2018-04-12T16:20:30.143Z,20.90
2018-04-12T16:22:57.720Z,21.20
2018-04-12T16:25:25.287Z,21.00
2018-04-12T16:27:52.849Z,20.60
2018-04-12T16:30:21.594Z,20.50
2018-04-12T16:32:49.153Z,20.40
2018-04-12T16:35:16.750Z,20.30
2018-04-12T16:37:48.559Z,20.40
2018-04-12T16:40:16.147Z,20.40
2018-04-12T16:42:43.714Z,20.20
2018-04-12T16:45:12.051Z,20.20
2018-04-12T16:47:39.656Z,20.20
2018-04-12T16:50:07.304Z,20.00
2018-04-12T16:52:35.662Z,19.40
2018-04-12T16:55:03.247Z,19.40
2018-04-12T16:57:31.651Z,19.30
2018-04-12T16:59:59.255Z,19.30
2018-04-12T17:02:26.813Z,19.20
2018-04-12T17:04:54.432Z,19.20
2018-04-12T17:07:22.001Z,19.00
2018-04-12T17:09:49.619Z,18.90
2018-04-12T17:12:17.962Z,18.80
2018-04-12T17:14:45.618Z,18.70
2018-04-12T17:17:13.233Z,18.60
2018-04-12T17:19:41.594Z,18.30
2018-04-12T17:22:14.462Z,18.10
2018-04-12T17:24:47.216Z,18.10
2018-04-12T17:27:14.907Z,18.00
2018-04-12T17:29:42.539Z,17.80
2018-04-12T17:32:10.174Z,17.70
2018-04-12T17:34:37.725Z,17.60
2018-04-12T17:37:05.434Z,17.50
2018-04-12T17:39:33.036Z,17.30
2018-04-12T17:42:01.385Z,17.00
2018-04-12T17:44:47.946Z,17.00
2018-04-12T17:47:15.575Z,16.90
2018-04-12T17:49:57.346Z,16.90
2018-04-12T17:52:25.007Z,16.70
2018-04-12T17:54:52.644Z,16.50
2018-04-12T17:57:40.046Z,16.40
2018-04-12T18:00:07.631Z,16.20
2018-04-12T18:02:55.854Z,15.90
2018-04-12T18:05:23.527Z,15.70
2018-04-12T18:07:55.786Z,15.50
2018-04-12T18:10:23.377Z,15.40
2018-04-12T18:12:50.999Z,15.30
2018-04-12T18:15:18.647Z,15.00
2018-04-12T18:17:46.987Z,14.60
2018-04-12T18:20:14.587Z,14.50
2018-04-12T18:22:43.018Z,14.00
2018-04-12T18:25:11.209Z,14.00
2018-04-12T18:27:39.030Z,13.80
2018-04-12T18:30:29.629Z,13.60
2018-04-12T18:32:59.287Z,13.60
2018-04-12T18:35:27.049Z,13.50
2018-04-12T18:37:55.376Z,13.30
2018-04-12T18:40:25.042Z,13.10
2018-04-12T18:42:53.410Z,12.80
2018-04-12T18:45:24.141Z,12.80
2018-04-12T18:47:51.771Z,12.80
2018-04-12T18:50:19.466Z,12.60
2018-04-12T18:52:47.995Z,12.30
2018-04-12T18:55:15.616Z,12.30
2018-04-12T18:57:43.222Z,12.10
2018-04-12T19:00:10.829Z,12.10
2018-04-12T19:02:38.541Z,12.10
2018-04-12T19:08:18.568Z,11.90
2018-04-12T19:10:48.355Z,11.80
2018-04-12T19:13:16.016Z,11.80
2018-04-12T19:15:53.921Z,11.70
2018-04-12T19:18:21.541Z,11.60
2018-04-12T19:20:49.149Z,11.50
2018-04-12T19:23:16.794Z,11.50
2018-04-12T19:25:44.407Z,11.30
2018-04-12T19:28:13.544Z,11.40
2018-04-12T19:30:55.593Z,11.40
2018-04-12T19:33:23.173Z,11.40
2018-04-12T19:35:50.845Z,11.40
2018-04-12T19:38:18.439Z,11.30
2018-04-12T19:40:46.072Z,11.30
2018-04-12T19:43:13.706Z,11.10
2018-04-12T19:45:47.565Z,11.10
2018-04-12T19:48:15.183Z,11.10
2018-04-12T19:50:42.755Z,11.10
2018-04-12T19:53:10.425Z,11.00
2018-04-12T19:55:38.004Z,11.20
2018-04-12T19:58:05.632Z,11.40
2018-04-12T20:00:52.577Z,11.50
2018-04-12T20:03:20.188Z,12.10
2018-04-12T20:05:48.529Z,12.60
2018-04-12T20:08:16.128Z,12.50
2018-04-12T20:10:44.502Z,13.00
2018-04-12T20:13:12.862Z,13.10
2018-04-12T20:15:40.478Z,13.10
2018-04-12T20:18:08.083Z,13.20
2018-04-12T20:20:35.685Z,13.20
2018-04-12T20:23:03.285Z,13.00
2018-04-12T20:25:30.926Z,12.70
2018-04-12T20:27:58.524Z,12.50
2018-04-12T20:30:26.165Z,12.30
2018-04-12T20:32:53.794Z,12.10
2018-04-12T20:35:21.395Z,11.70
2018-04-12T20:37:49.023Z,11.50
2018-04-12T20:40:16.631Z,11.30
2018-04-12T20:42:45.042Z,10.80
2018-04-12T20:45:12.642Z,10.80
2018-04-12T20:47:40.245Z,10.90
2018-04-12T20:50:08.610Z,10.70
2018-04-12T20:52:36.269Z,10.70
2018-04-12T20:55:03.841Z,10.70
2018-04-12T20:57:32.242Z,10.50
2018-04-12T20:59:59.823Z,10.50
2018-04-12T21:02:27.499Z,10.30
2018-04-12T21:04:55.072Z,10.20
2018-04-12T21:07:22.695Z,10.10
2018-04-12T21:09:50.297Z,9.90
2018-04-12T21:12:17.911Z,10.00
2018-04-12T21:14:45.577Z,10.20
2018-04-12T21:17:13.206Z,10.30
2018-04-12T21:19:41.582Z,10.30
2018-04-12T21:22:09.160Z,10.30
2018-04-12T21:24:36.739Z,10.20
2018-04-12T21:27:04.332Z,10.00
2018-04-12T21:29:31.974Z,9.90
2018-04-12T21:31:59.545Z,9.90
2018-04-12T21:34:27.202Z,10.00
2018-04-12T21:36:54.999Z,10.00
2018-04-12T21:39:22.626Z,10.00
2018-04-12T21:41:50.202Z,9.90
2018-04-12T21:44:17.789Z,9.80
2018-04-12T21:46:45.399Z,9.90
2018-04-12T21:49:12.995Z,10.00
2018-04-12T21:51:40.596Z,9.90
2018-04-12T21:54:08.161Z,9.90
2018-04-12T21:56:35.786Z,9.80
2018-04-12T21:59:03.362Z,9.80
2018-04-12T22:01:31.727Z,9.60
2018-04-12T22:04:01.020Z,9.60
2018-04-12T22:06:28.612Z,9.50
2018-04-12T22:08:56.169Z,9.50
2018-04-12T22:11:23.790Z,9.40
2018-04-12T22:13:51.457Z,9.40
2018-04-12T22:16:19.097Z,9.30
2018-04-12T22:18:47.662Z,9.20
2018-04-12T22:21:15.282Z,9.10
2018-04-12T22:23:43.678Z,8.90
2018-04-12T22:26:11.312Z,8.90
2018-04-12T22:28:39.671Z,8.80
2018-04-12T22:31:07.228Z,8.80
2018-04-12T22:33:34.797Z,8.80
2018-04-12T22:36:02.416Z,9.00
2018-04-12T22:38:30.026Z,9.00
2018-04-12T22:40:57.584Z,9.00
2018-04-12T22:43:25.133Z,8.90
2018-04-12T22:45:52.724Z,8.80
2018-04-12T22:48:20.338Z,8.70
2018-04-12T22:50:47.969Z,8.60
2018-04-12T22:53:15.528Z,8.50
2018-04-12T22:55:43.141Z,8.40
2018-04-12T22:58:10.786Z,8.40
2018-04-12T23:00:52.825Z,8.30
2018-04-12T23:03:21.225Z,8.20
2018-04-12T23:05:48.881Z,8.20
2018-04-12T23:08:16.446Z,8.10
2018-04-12T23:10:44.085Z,8.10
2018-04-12T23:13:12.484Z,8.10
2018-04-12T23:15:40.069Z,8.00
2018-04-12T23:18:07.676Z,8.10
2018-04-12T23:20:36.030Z,8.00
2018-04-12T23:23:03.630Z,8.00
2018-04-12T23:25:31.952Z,7.80
2018-04-12T23:27:59.565Z,7.80
2018-04-12T23:30:27.120Z,7.80
2018-04-12T23:32:54.685Z,7.80
2018-04-12T23:35:22.286Z,7.80
2018-04-12T23:37:49.849Z,7.70
2018-04-12T23:40:17.477Z,7.80
2018-04-12T23:42:45.081Z,7.70
2018-04-12T23:45:12.681Z,7.80
2018-04-12T23:47:40.250Z,7.80
2018-04-12T23:50:07.862Z,7.70
2018-04-12T23:52:35.515Z,7.70
2018-04-12T23:55:03.117Z,7.70
2018-04-12T23:57:31.485Z,7.40
2018-04-12T23:59:59.815Z,7.50
